sensor_id;sensor_type;location;lat;lon;timestamp;pressure;altitude;pressure_sealevel;temperature;humidity
13836;BME280;6988;52.614;13.500;2023-06-22T00:02:19;53806.56;;;-143.77;68.63
13836;BME280;6988;52.614;13.500;2023-06-22T00:07:12;53833.25;;;-143.77;69.15
13836;BME280;6988;52.614;13.500;2023-06-22T00:12:05;53835.31;;;-143.77;69.16
13836;BME280;6988;52.614;13.500;2023-06-22T00:16:57;53839.41;;;-143.77;69.41
13836;BME280;6988;52.614;13.500;2023-06-22T00:21:51;53851.72;;;-143.77;69.49
13836;BME280;6988;52.614;13.500;2023-06-22T00:26:43;53839.41;;;-143.77;69.29
13836;BME280;6988;52.614;13.500;2023-06-22T00:31:35;53878.38;;;-143.77;69.60
13836;BME280;6988;52.614;13.500;2023-06-22T00:36:27;53847.59;;;-143.77;70.14
13836;BME280;6988;52.614;13.500;2023-06-22T00:41:22;53868.13;;;-143.77;70.12
13836;BME280;6988;52.614;13.500;2023-06-22T00:46:15;53849.66;;;-143.77;70.50
13836;BME280;6988;52.614;13.500;2023-06-22T00:51:08;53851.72;;;-143.77;70.54
13836;BME280;6988;52.614;13.500;2023-06-22T00:55:59;53853.75;;;-143.77;70.74
13836;BME280;6988;52.614;13.500;2023-06-22T01:00:55;53859.91;;;-143.77;70.42
13836;BME280;6988;52.614;13.500;2023-06-22T01:05:49;53870.19;;;-143.77;70.53
13836;BME280;6988;52.614;13.500;2023-06-22T01:10:47;53886.59;;;-143.77;71.00
13836;BME280;6988;52.614;13.500;2023-06-22T01:15:51;53896.84;;;-143.77;71.24
13836;BME280;6988;52.614;13.500;2023-06-22T01:20:47;53900.94;;;-143.77;71.74
13836;BME280;6988;52.614;13.500;2023-06-22T01:25:47;53909.16;;;-143.77;71.89
13836;BME280;6988;52.614;13.500;2023-06-22T01:30:41;53903.00;;;-143.77;72.00
13836;BME280;6988;52.614;13.500;2023-06-22T01:35:34;53909.16;;;-143.77;71.68
13836;BME280;6988;52.614;13.500;2023-06-22T01:40:27;53905.06;;;-143.77;72.15
13836;BME280;6988;52.614;13.500;2023-06-22T01:45:20;53890.69;;;-143.77;72.32
13836;BME280;6988;52.614;13.500;2023-06-22T01:50:16;53954.28;;;-143.77;72.81
13836;BME280;6988;52.614;13.500;2023-06-22T01:55:08;53909.16;;;-143.77;73.06
13836;BME280;6988;52.614;13.500;2023-06-22T02:00:03;53923.53;;;-143.77;73.72
13836;BME280;6988;52.614;13.500;2023-06-22T02:05:08;53950.19;;;-143.77;73.88
13836;BME280;6988;52.614;13.500;2023-06-22T02:10:07;53968.66;;;-143.77;73.92
13836;BME280;6988;52.614;13.500;2023-06-22T02:15:00;53950.19;;;-143.77;74.41
13836;BME280;6988;52.614;13.500;2023-06-22T02:19:52;53956.34;;;-143.77;74.45
13836;BME280;6988;52.614;13.500;2023-06-22T02:24:44;53964.56;;;-143.77;74.54
13836;BME280;6988;52.614;13.500;2023-06-22T02:29:37;53946.09;;;-143.77;74.43
13836;BME280;6988;52.614;13.500;2023-06-22T02:34:29;53952.25;;;-143.77;74.68
13836;BME280;6988;52.614;13.500;2023-06-22T02:39:23;53974.81;;;-143.77;75.01
13836;BME280;6988;52.614;13.500;2023-06-22T02:44:16;53983.00;;;-143.77;75.55
13836;BME280;6988;52.614;13.500;2023-06-22T02:49:10;53941.97;;;-143.77;75.64
13836;BME280;6988;52.614;13.500;2023-06-22T02:54:02;53954.28;;;-143.77;74.53
13836;BME280;6988;52.614;13.500;2023-06-22T02:58:54;53970.72;;;-143.77;75.19
13836;BME280;6988;52.614;13.500;2023-06-22T03:03:52;53966.59;;;-143.77;76.46
13836;BME280;6988;52.614;13.500;2023-06-22T03:08:46;54003.53;;;-143.77;76.96
13836;BME280;6988;52.614;13.500;2023-06-22T03:13:42;53964.56;;;-143.77;77.51
13836;BME280;6988;52.614;13.500;2023-06-22T03:18:36;53989.16;;;-143.77;77.37
13836;BME280;6988;52.614;13.500;2023-06-22T03:23:28;53966.59;;;-143.77;77.27
13836;BME280;6988;52.614;13.500;2023-06-22T03:28:21;53974.81;;;-143.77;77.26
13836;BME280;6988;52.614;13.500;2023-06-22T03:33:13;53958.41;;;-143.77;77.49
13836;BME280;6988;52.614;13.500;2023-06-22T03:38:05;53987.13;;;-143.77;77.88
13836;BME280;6988;52.614;13.500;2023-06-22T03:42:57;54017.91;;;-143.77;77.52
13836;BME280;6988;52.614;13.500;2023-06-22T03:47:50;53954.28;;;-143.77;77.86
13836;BME280;6988;52.614;13.500;2023-06-22T03:52:42;53952.25;;;-143.77;78.27
13836;BME280;6988;52.614;13.500;2023-06-22T03:57:34;53964.56;;;-143.77;78.31
13836;BME280;6988;52.614;13.500;2023-06-22T04:02:26;53956.34;;;-143.77;79.05
13836;BME280;6988;52.614;13.500;2023-06-22T04:07:19;53983.00;;;-143.77;79.37
13836;BME280;6988;52.614;13.500;2023-06-22T04:12:11;53966.59;;;-143.77;79.75
13836;BME280;6988;52.614;13.500;2023-06-22T04:17:04;53966.59;;;-143.77;80.17
13836;BME280;6988;52.614;13.500;2023-06-22T04:21:56;53946.09;;;-143.77;80.39
13836;BME280;6988;52.614;13.500;2023-06-22T04:26:49;53987.13;;;-143.77;80.36
13836;BME280;6988;52.614;13.500;2023-06-22T04:31:45;53925.56;;;-143.77;80.10
13836;BME280;6988;52.614;13.500;2023-06-22T04:36:41;53962.50;;;-143.77;79.62
13836;BME280;6988;52.614;13.500;2023-06-22T04:41:33;53907.09;;;-143.77;78.53
13836;BME280;6988;52.614;13.500;2023-06-22T04:46:34;53925.56;;;-143.77;78.44
13836;BME280;6988;52.614;13.500;2023-06-22T04:51:28;53900.94;;;-143.77;78.46
13836;BME280;6988;52.614;13.500;2023-06-22T04:56:21;53921.47;;;-143.77;78.59
13836;BME280;6988;52.614;13.500;2023-06-22T05:01:20;53872.22;;;-143.77;78.02
13836;BME280;6988;52.614;13.500;2023-06-22T05:06:14;53894.78;;;-143.77;78.10
13836;BME280;6988;52.614;13.500;2023-06-22T05:11:06;53876.34;;;-143.77;76.58
13836;BME280;6988;52.614;13.500;2023-06-22T05:15:58;53843.50;;;-143.77;75.57
13836;BME280;6988;52.614;13.500;2023-06-22T05:20:52;53880.44;;;-143.77;76.03
13836;BME280;6988;52.614;13.500;2023-06-22T05:25:45;53847.59;;;-143.77;73.57
13836;BME280;6988;52.614;13.500;2023-06-22T05:30:37;53872.22;;;-143.77;73.31
13836;BME280;6988;52.614;13.500;2023-06-22T05:35:30;53833.25;;;-143.77;71.22
13836;BME280;6988;52.614;13.500;2023-06-22T05:40:22;53855.81;;;-143.77;67.75
13836;BME280;6988;52.614;13.500;2023-06-22T05:45:15;53825.03;;;-143.77;65.22
13836;BME280;6988;52.614;13.500;2023-06-22T05:50:08;53792.22;;;-143.77;65.76
13836;BME280;6988;52.614;13.500;2023-06-22T05:55:01;53786.06;;;-143.77;65.09
13836;BME280;6988;52.614;13.500;2023-06-22T05:59:54;53798.38;;;-143.77;63.29
13836;BME280;6988;52.614;13.500;2023-06-22T06:04:47;53792.22;;;-143.77;63.27
13836;BME280;6988;52.614;13.500;2023-06-22T06:09:38;53757.34;;;-143.77;63.20
13836;BME280;6988;52.614;13.500;2023-06-22T06:14:30;53767.59;;;-143.77;63.40
13836;BME280;6988;52.614;13.500;2023-06-22T06:19:22;53749.13;;;-143.77;62.41
13836;BME280;6988;52.614;13.500;2023-06-22T06:24:15;53720.41;;;-143.77;61.68
13836;BME280;6988;52.614;13.500;2023-06-22T06:29:07;53679.38;;;-143.77;60.17
13836;BME280;6988;52.614;13.500;2023-06-22T06:33:59;53642.47;;;-143.77;59.15
13836;BME280;6988;52.614;13.500;2023-06-22T06:38:51;53603.47;;;-143.77;58.01
13836;BME280;6988;52.614;13.500;2023-06-22T06:43:44;53574.75;;;-143.77;57.95
13836;BME280;6988;52.614;13.500;2023-06-22T06:48:36;53548.09;;;-143.77;56.24
13836;BME280;6988;52.614;13.500;2023-06-22T06:53:28;53525.53;;;-143.77;54.71
13836;BME280;6988;52.614;13.500;2023-06-22T06:58:20;53494.75;;;-143.77;54.33
13836;BME280;6988;52.614;13.500;2023-06-22T07:03:15;53513.22;;;-143.77;52.58
13836;BME280;6988;52.614;13.500;2023-06-22T07:08:06;53484.50;;;-143.77;52.28
13836;BME280;6988;52.614;13.500;2023-06-22T07:12:58;53461.94;;;-143.77;51.89
13836;BME280;6988;52.614;13.500;2023-06-22T07:17:50;53447.56;;;-143.77;51.86
13836;BME280;6988;52.614;13.500;2023-06-22T07:22:44;53371.66;;;-143.77;50.08
13836;BME280;6988;52.614;13.500;2023-06-22T07:27:37;53367.56;;;-143.77;49.07
13836;BME280;6988;52.614;13.500;2023-06-22T07:32:30;53466.03;;;-143.77;47.68
13836;BME280;6988;52.614;13.500;2023-06-22T07:37:22;53502.97;;;-143.77;48.17
13836;BME280;6988;52.614;13.500;2023-06-22T07:42:15;53486.53;;;-143.77;47.34
13836;BME280;6988;52.614;13.500;2023-06-22T07:47:09;53496.81;;;-143.77;45.86
13836;BME280;6988;52.614;13.500;2023-06-22T07:52:01;53470.13;;;-143.77;45.59
13836;BME280;6988;52.614;13.500;2023-06-22T07:56:53;53398.34;;;-143.77;45.62
13836;BME280;6988;52.614;13.500;2023-06-22T08:01:46;53414.75;;;-143.77;46.64
13836;BME280;6988;52.614;13.500;2023-06-22T08:06:39;53420.91;;;-143.77;43.84
13836;BME280;6988;52.614;13.500;2023-06-22T08:11:31;53431.16;;;-143.77;43.82
13836;BME280;6988;52.614;13.500;2023-06-22T08:16:23;53392.19;;;-143.77;45.45
13836;BME280;6988;52.614;13.500;2023-06-22T08:21:17;53408.59;;;-143.77;44.11
13836;BME280;6988;52.614;13.500;2023-06-22T08:26:09;53416.78;;;-143.77;45.00
13836;BME280;6988;52.614;13.500;2023-06-22T08:31:02;53441.41;;;-143.77;44.05
13836;BME280;6988;52.614;13.500;2023-06-22T08:35:54;53474.25;;;-143.77;43.73
13836;BME280;6988;52.614;13.500;2023-06-22T08:40:48;53425.00;;;-143.77;45.00
13836;BME280;6988;52.614;13.500;2023-06-22T08:45:40;53463.97;;;-143.77;44.65
13836;BME280;6988;52.614;13.500;2023-06-22T08:50:31;53463.97;;;-143.77;44.29
13836;BME280;6988;52.614;13.500;2023-06-22T08:55:23;53466.03;;;-143.77;45.37
13836;BME280;6988;52.614;13.500;2023-06-22T09:00:18;53443.47;;;-143.77;45.59
13836;BME280;6988;52.614;13.500;2023-06-22T09:05:10;53416.78;;;-143.77;45.54
13836;BME280;6988;52.614;13.500;2023-06-22T09:10:03;53406.53;;;-143.77;44.05
13836;BME280;6988;52.614;13.500;2023-06-22T09:14:56;53402.44;;;-143.77;44.77
13836;BME280;6988;52.614;13.500;2023-06-22T09:19:49;53388.06;;;-143.77;43.61
13836;BME280;6988;52.614;13.500;2023-06-22T09:24:41;53314.22;;;-143.77;42.54
13836;BME280;6988;52.614;13.500;2023-06-22T09:29:33;53310.13;;;-143.77;42.16
13836;BME280;6988;52.614;13.500;2023-06-22T09:34:27;53308.06;;;-143.77;41.20
13836;BME280;6988;52.614;13.500;2023-06-22T09:39:20;53340.91;;;-143.77;40.52
13836;BME280;6988;52.614;13.500;2023-06-22T09:44:12;53326.53;;;-143.77;40.69
13836;BME280;6988;52.614;13.500;2023-06-22T09:49:04;53191.16;;;-143.77;40.44
13836;BME280;6988;52.614;13.500;2023-06-22T09:53:56;53113.22;;;-143.77;40.52
13836;BME280;6988;52.614;13.500;2023-06-22T09:58:50;53092.69;;;-143.77;39.59
13836;BME280;6988;52.614;13.500;2023-06-22T10:03:43;53084.50;;;-143.77;40.06
13836;BME280;6988;52.614;13.500;2023-06-22T10:08:35;53010.66;;;-143.77;38.20
13836;BME280;6988;52.614;13.500;2023-06-22T10:13:28;52977.81;;;-143.77;37.94
13836;BME280;6988;52.614;13.500;2023-06-22T10:18:21;52955.25;;;-143.77;37.37
13836;BME280;6988;52.614;13.500;2023-06-22T10:23:13;52969.63;;;-143.77;38.29
13836;BME280;6988;52.614;13.500;2023-06-22T10:28:05;53014.75;;;-143.77;37.07
13836;BME280;6988;52.614;13.500;2023-06-22T10:32:57;52961.41;;;-143.77;37.64
13836;BME280;6988;52.614;13.500;2023-06-22T10:37:51;52924.50;;;-143.77;36.77
13836;BME280;6988;52.614;13.500;2023-06-22T10:42:42;52945.00;;;-143.77;37.25
13836;BME280;6988;52.614;13.500;2023-06-22T10:47:37;52981.94;;;-143.77;37.23
13836;BME280;6988;52.614;13.500;2023-06-22T10:52:29;52947.06;;;-143.77;36.64
13836;BME280;6988;52.614;13.500;2023-06-22T10:57:22;53139.88;;;-143.77;36.52
13836;BME280;6988;52.614;13.500;2023-06-22T11:02:14;52975.78;;;-143.77;36.33
13836;BME280;6988;52.614;13.500;2023-06-22T11:07:06;53068.09;;;-143.77;36.65
13836;BME280;6988;52.614;13.500;2023-06-22T11:11:58;53129.63;;;-143.77;36.75
13836;BME280;6988;52.614;13.500;2023-06-22T11:16:51;53076.28;;;-143.77;37.05
13836;BME280;6988;52.614;13.500;2023-06-22T11:21:43;53059.88;;;-143.77;37.42
13836;BME280;6988;52.614;13.500;2023-06-22T11:26:35;52996.28;;;-143.77;36.84
13836;BME280;6988;52.614;13.500;2023-06-22T11:31:27;53063.97;;;-143.77;36.00
13836;BME280;6988;52.614;13.500;2023-06-22T11:36:20;53113.22;;;-143.77;36.63
13836;BME280;6988;52.614;13.500;2023-06-22T11:41:12;52994.25;;;-143.77;36.61
13836;BME280;6988;52.614;13.500;2023-06-22T11:46:05;52928.59;;;-143.77;37.03
13836;BME280;6988;52.614;13.500;2023-06-22T11:50:56;53078.34;;;-143.77;36.57
13836;BME280;6988;52.614;13.500;2023-06-22T11:55:50;52932.69;;;-143.77;36.71
13836;BME280;6988;52.614;13.500;2023-06-22T12:00:43;53086.53;;;-143.77;36.24
13836;BME280;6988;52.614;13.500;2023-06-22T12:05:35;52977.81;;;-143.77;37.05
13836;BME280;6988;52.614;13.500;2023-06-22T12:10:27;53084.50;;;-143.77;37.91
13836;BME280;6988;52.614;13.500;2023-06-22T12:15:21;52938.84;;;-143.77;37.25
13836;BME280;6988;52.614;13.500;2023-06-22T12:20:12;53068.09;;;-143.77;36.79
13836;BME280;6988;52.614;13.500;2023-06-22T12:25:05;52891.69;;;-143.77;36.50
13836;BME280;6988;52.614;13.500;2023-06-22T12:29:57;52862.97;;;-143.77;36.52
13836;BME280;6988;52.614;13.500;2023-06-22T12:34:51;52840.41;;;-143.77;34.76
13836;BME280;6988;52.614;13.500;2023-06-22T12:39:43;52854.75;;;-143.77;35.29
13836;BME280;6988;52.614;13.500;2023-06-22T12:44:36;52838.34;;;-143.77;35.63
13836;BME280;6988;52.614;13.500;2023-06-22T12:49:28;52852.72;;;-143.77;35.60
13836;BME280;6988;52.614;13.500;2023-06-22T12:54:21;52875.28;;;-143.77;35.77
13836;BME280;6988;52.614;13.500;2023-06-22T12:59:13;52895.78;;;-143.77;36.29
13836;BME280;6988;52.614;13.500;2023-06-22T13:04:05;53010.66;;;-143.77;36.57
13836;BME280;6988;52.614;13.500;2023-06-22T13:08:57;52990.13;;;-143.77;37.24
13836;BME280;6988;52.614;13.500;2023-06-22T13:13:50;53022.94;;;-143.77;36.13
13836;BME280;6988;52.614;13.500;2023-06-22T13:18:42;52940.91;;;-143.77;37.03
13836;BME280;6988;52.614;13.500;2023-06-22T13:23:34;53039.38;;;-143.77;37.45
13836;BME280;6988;52.614;13.500;2023-06-22T13:28:26;53039.38;;;-143.77;37.53
13836;BME280;6988;52.614;13.500;2023-06-22T13:33:21;52945.00;;;-143.77;36.54
13836;BME280;6988;52.614;13.500;2023-06-22T13:38:12;52965.53;;;-143.77;37.37
13836;BME280;6988;52.614;13.500;2023-06-22T13:43:05;52965.53;;;-143.77;37.27
13836;BME280;6988;52.614;13.500;2023-06-22T13:47:57;53004.50;;;-143.77;37.00
13836;BME280;6988;52.614;13.500;2023-06-22T13:52:50;53010.66;;;-143.77;37.77
13836;BME280;6988;52.614;13.500;2023-06-22T13:57:43;53020.91;;;-143.77;37.62
13836;BME280;6988;52.614;13.500;2023-06-22T14:02:35;53029.09;;;-143.77;36.54
13836;BME280;6988;52.614;13.500;2023-06-22T14:07:27;53012.69;;;-143.77;36.83
13836;BME280;6988;52.614;13.500;2023-06-22T14:12:20;53041.41;;;-143.77;37.60
13836;BME280;6988;52.614;13.500;2023-06-22T14:17:12;53053.72;;;-143.77;36.76
13836;BME280;6988;52.614;13.500;2023-06-22T14:22:05;53018.84;;;-143.77;37.78
13836;BME280;6988;52.614;13.500;2023-06-22T14:27:00;53059.88;;;-143.77;37.37
13836;BME280;6988;52.614;13.500;2023-06-22T14:31:55;53022.94;;;-143.77;36.85
13836;BME280;6988;52.614;13.500;2023-06-22T14:36:47;53055.78;;;-143.77;37.46
13836;BME280;6988;52.614;13.500;2023-06-22T14:41:38;53027.06;;;-143.77;38.01
13836;BME280;6988;52.614;13.500;2023-06-22T14:46:30;53027.06;;;-143.77;37.46
13836;BME280;6988;52.614;13.500;2023-06-22T14:51:23;52981.94;;;-143.77;38.01
13836;BME280;6988;52.614;13.500;2023-06-22T14:56:15;53006.53;;;-143.77;36.86
13836;BME280;6988;52.614;13.500;2023-06-22T15:01:07;53059.88;;;-143.77;37.36
13836;BME280;6988;52.614;13.500;2023-06-22T15:06:00;53096.78;;;-143.77;37.76
13836;BME280;6988;52.614;13.500;2023-06-22T15:10:53;53086.53;;;-143.77;38.11
13836;BME280;6988;52.614;13.500;2023-06-22T15:15:46;53107.06;;;-143.77;37.97
13836;BME280;6988;52.614;13.500;2023-06-22T15:20:38;53076.28;;;-143.77;39.52
13836;BME280;6988;52.614;13.500;2023-06-22T15:25:30;53061.94;;;-143.77;38.05
13836;BME280;6988;52.614;13.500;2023-06-22T15:30:23;53076.28;;;-143.77;38.58
13836;BME280;6988;52.614;13.500;2023-06-22T15:35:15;53078.34;;;-143.77;38.05
13836;BME280;6988;52.614;13.500;2023-06-22T15:40:09;53127.56;;;-143.77;38.58
13836;BME280;6988;52.614;13.500;2023-06-22T15:45:01;53086.53;;;-143.77;39.27
13836;BME280;6988;52.614;13.500;2023-06-22T15:49:54;53098.84;;;-143.77;38.51
13836;BME280;6988;52.614;13.500;2023-06-22T15:54:46;53113.22;;;-143.77;39.42
13836;BME280;6988;52.614;13.500;2023-06-22T15:59:38;53137.81;;;-143.77;39.26
13836;BME280;6988;52.614;13.500;2023-06-22T16:04:30;53072.19;;;-143.77;39.63
13836;BME280;6988;52.614;13.500;2023-06-22T16:09:23;53137.81;;;-143.77;40.01
13836;BME280;6988;52.614;13.500;2023-06-22T16:14:15;53185.00;;;-143.77;39.57
13836;BME280;6988;52.614;13.500;2023-06-22T16:19:07;53133.72;;;-143.77;40.23
13836;BME280;6988;52.614;13.500;2023-06-22T16:23:59;53170.63;;;-143.77;40.45
13836;BME280;6988;52.614;13.500;2023-06-22T16:28:52;53180.91;;;-143.77;40.01
13836;BME280;6988;52.614;13.500;2023-06-22T16:33:44;53201.41;;;-143.77;40.32
13836;BME280;6988;52.614;13.500;2023-06-22T16:38:38;53185.00;;;-143.77;40.28
13836;BME280;6988;52.614;13.500;2023-06-22T16:43:30;53201.41;;;-143.77;40.82
13836;BME280;6988;52.614;13.500;2023-06-22T16:48:24;53230.13;;;-143.77;41.42
13836;BME280;6988;52.614;13.500;2023-06-22T16:53:17;53244.50;;;-143.77;41.63
13836;BME280;6988;52.614;13.500;2023-06-22T16:58:11;53252.69;;;-143.77;41.61
13836;BME280;6988;52.614;13.500;2023-06-22T17:03:08;53291.66;;;-143.77;42.18
13836;BME280;6988;52.614;13.500;2023-06-22T17:08:10;53269.09;;;-143.77;42.40
13836;BME280;6988;52.614;13.500;2023-06-22T17:13:04;53293.72;;;-143.77;42.43
13836;BME280;6988;52.614;13.500;2023-06-22T17:17:57;53269.09;;;-143.77;43.26
13836;BME280;6988;52.614;13.500;2023-06-22T17:22:49;53269.09;;;-143.77;43.42
13836;BME280;6988;52.614;13.500;2023-06-22T17:27:46;53289.63;;;-143.77;43.70
13836;BME280;6988;52.614;13.500;2023-06-22T17:32:38;53332.69;;;-143.77;43.51
13836;BME280;6988;52.614;13.500;2023-06-22T17:37:46;53306.03;;;-143.77;43.41
13836;BME280;6988;52.614;13.500;2023-06-22T17:42:39;53330.63;;;-143.77;43.58
13836;BME280;6988;52.614;13.500;2023-06-22T17:47:34;53363.47;;;-143.77;43.33
13836;BME280;6988;52.614;13.500;2023-06-22T17:52:26;53326.53;;;-143.77;43.84
13836;BME280;6988;52.614;13.500;2023-06-22T17:57:18;53363.47;;;-143.77;43.83
13836;BME280;6988;52.614;13.500;2023-06-22T18:02:12;53355.25;;;-143.77;44.39
13836;BME280;6988;52.614;13.500;2023-06-22T18:07:05;53367.56;;;-143.77;44.66
13836;BME280;6988;52.614;13.500;2023-06-22T18:12:05;53398.34;;;-143.77;45.05
13836;BME280;6988;52.614;13.500;2023-06-22T18:16:59;53383.97;;;-143.77;45.45
13836;BME280;6988;52.614;13.500;2023-06-22T18:21:51;53365.50;;;-143.77;46.27
13836;BME280;6988;52.614;13.500;2023-06-22T18:26:45;53416.78;;;-143.77;46.85
13836;BME280;6988;52.614;13.500;2023-06-22T18:31:39;53386.03;;;-143.77;47.10
13836;BME280;6988;52.614;13.500;2023-06-22T18:36:37;53404.50;;;-143.77;47.78
13836;BME280;6988;52.614;13.500;2023-06-22T18:41:35;53422.94;;;-143.77;48.31
13836;BME280;6988;52.614;13.500;2023-06-22T18:46:34;53410.66;;;-143.77;48.17
13836;BME280;6988;52.614;13.500;2023-06-22T18:51:26;53453.72;;;-143.77;49.06
13836;BME280;6988;52.614;13.500;2023-06-22T18:56:21;53422.94;;;-143.77;49.28
13836;BME280;6988;52.614;13.500;2023-06-22T19:01:18;53451.66;;;-143.77;49.54
13836;BME280;6988;52.614;13.500;2023-06-22T19:06:56;53468.09;;;-143.77;49.94
13836;BME280;6988;52.614;13.500;2023-06-22T19:12:20;53470.13;;;-143.77;49.55
13836;BME280;6988;52.614;13.500;2023-06-22T19:17:18;53480.38;;;-143.77;49.51
13836;BME280;6988;52.614;13.500;2023-06-22T19:22:11;53502.97;;;-143.77;49.39
13836;BME280;6988;52.614;13.500;2023-06-22T19:27:04;53490.66;;;-143.77;49.54
13836;BME280;6988;52.614;13.500;2023-06-22T19:31:56;53502.97;;;-143.77;49.79
13836;BME280;6988;52.614;13.500;2023-06-22T19:36:48;53498.84;;;-143.77;49.32
13836;BME280;6988;52.614;13.500;2023-06-22T19:41:41;53494.75;;;-143.77;50.39
13836;BME280;6988;52.614;13.500;2023-06-22T19:46:36;53523.47;;;-143.77;50.39
13836;BME280;6988;52.614;13.500;2023-06-22T19:51:32;53488.59;;;-143.77;50.48
13836;BME280;6988;52.614;13.500;2023-06-22T19:56:24;53511.16;;;-143.77;50.30
13836;BME280;6988;52.614;13.500;2023-06-22T20:01:17;53515.25;;;-143.77;50.41
13836;BME280;6988;52.614;13.500;2023-06-22T20:06:11;53541.94;;;-143.77;49.71
13836;BME280;6988;52.614;13.500;2023-06-22T20:11:06;53513.22;;;-143.77;49.63
13836;BME280;6988;52.614;13.500;2023-06-22T20:16:08;53537.84;;;-143.77;49.42
13836;BME280;6988;52.614;13.500;2023-06-22T20:21:01;53543.97;;;-143.77;49.59
13836;BME280;6988;52.614;13.500;2023-06-22T20:25:53;53546.03;;;-143.77;49.37
13836;BME280;6988;52.614;13.500;2023-06-22T20:31:01;53498.84;;;-143.77;48.64
13836;BME280;6988;52.614;13.500;2023-06-22T20:35:55;53525.53;;;-143.77;47.68
13836;BME280;6988;52.614;13.500;2023-06-22T20:40:48;53543.97;;;-143.77;48.49
13836;BME280;6988;52.614;13.500;2023-06-22T20:45:40;53548.09;;;-143.77;49.14
13836;BME280;6988;52.614;13.500;2023-06-22T20:50:32;53541.94;;;-143.77;52.14
13836;BME280;6988;52.614;13.500;2023-06-22T20:55:25;53578.84;;;-143.77;62.48
13836;BME280;6988;52.614;13.500;2023-06-22T21:00:19;53654.75;;;-143.77;59.54
13836;BME280;6988;52.614;13.500;2023-06-22T21:05:12;53679.38;;;-143.77;65.89
13836;BME280;6988;52.614;13.500;2023-06-22T21:10:05;53689.63;;;-143.77;67.15
13836;BME280;6988;52.614;13.500;2023-06-22T21:14:56;53716.31;;;-143.77;69.41
13836;BME280;6988;52.614;13.500;2023-06-22T21:19:50;53701.94;;;-143.77;70.84
13836;BME280;6988;52.614;13.500;2023-06-22T21:24:42;53736.81;;;-143.77;72.04
13836;BME280;6988;52.614;13.500;2023-06-22T21:29:34;53751.19;;;-143.77;73.76
13836;BME280;6988;52.614;13.500;2023-06-22T21:34:25;53728.63;;;-143.77;74.54
13836;BME280;6988;52.614;13.500;2023-06-22T21:39:19;53757.34;;;-143.77;75.29
13836;BME280;6988;52.614;13.500;2023-06-22T21:44:10;53714.25;;;-143.77;75.48
13836;BME280;6988;52.614;13.500;2023-06-22T22:05:01;53753.25;;;-143.77;78.98
13836;BME280;6988;52.614;13.500;2023-06-22T22:09:52;53757.34;;;-143.77;80.28
13836;BME280;6988;52.614;13.500;2023-06-22T22:14:45;53808.63;;;-143.77;81.20
13836;BME280;6988;52.614;13.500;2023-06-22T22:19:36;53777.84;;;-143.77;81.75
13836;BME280;6988;52.614;13.500;2023-06-22T22:24:30;53765.53;;;-143.77;81.90
13836;BME280;6988;52.614;13.500;2023-06-22T22:29:23;53751.19;;;-143.77;80.91
13836;BME280;6988;52.614;13.500;2023-06-22T22:34:14;53784.00;;;-143.77;79.97
13836;BME280;6988;52.614;13.500;2023-06-22T22:39:07;53779.91;;;-143.77;79.19
13836;BME280;6988;52.614;13.500;2023-06-22T22:44:02;53745.03;;;-143.77;79.14
13836;BME280;6988;52.614;13.500;2023-06-22T22:48:54;53777.84;;;-143.77;79.60
13836;BME280;6988;52.614;13.500;2023-06-22T22:53:46;53798.38;;;-143.77;79.25
13836;BME280;6988;52.614;13.500;2023-06-22T22:58:37;53804.53;;;-143.77;77.61
13836;BME280;6988;52.614;13.500;2023-06-22T23:03:31;53800.41;;;-143.77;77.79
13836;BME280;6988;52.614;13.500;2023-06-22T23:08:23;53831.19;;;-143.77;78.75
13836;BME280;6988;52.614;13.500;2023-06-22T23:13:15;53839.41;;;-143.77;79.65
13836;BME280;6988;52.614;13.500;2023-06-22T23:18:07;53798.38;;;-143.77;78.89
13836;BME280;6988;52.614;13.500;2023-06-22T23:23:01;53876.34;;;-143.77;79.44
13836;BME280;6988;52.614;13.500;2023-06-22T23:27:53;53874.28;;;-143.77;79.52
13836;BME280;6988;52.614;13.500;2023-06-22T23:32:47;53851.72;;;-143.77;80.37
13836;BME280;6988;52.614;13.500;2023-06-22T23:37:39;53864.03;;;-143.77;79.59
13836;BME280;6988;52.614;13.500;2023-06-22T23:42:32;53878.38;;;-143.77;79.93
13836;BME280;6988;52.614;13.500;2023-06-22T23:47:25;53851.72;;;-143.77;80.97
13836;BME280;6988;52.614;13.500;2023-06-22T23:52:18;53884.53;;;-143.77;80.90
13836;BME280;6988;52.614;13.500;2023-06-22T23:57:11;53905.06;;;-143.77;81.06
